createdAt,value
2022-12-03T00:01:43.020Z,35.97
2022-12-03T00:04:45.716Z,37.97
2022-12-03T00:07:48.511Z,36.87
2022-12-03T00:10:51.929Z,35.55
2022-12-03T00:13:54.682Z,35.92
2022-12-03T00:16:57.527Z,33.60
2022-12-03T00:20:00.606Z,33.77
2022-12-03T00:23:03.384Z,39.23
2022-12-03T00:26:06.231Z,36.13
2022-12-03T00:29:09.127Z,36.15
2022-12-03T00:32:12.022Z,35.17
2022-12-03T00:35:14.875Z,35.57
2022-12-03T00:38:17.697Z,36.27
2022-12-03T00:41:20.550Z,32.30
2022-12-03T00:44:23.372Z,32.60
2022-12-03T00:47:26.118Z,36.53
2022-12-03T00:50:28.998Z,33.33
2022-12-03T00:53:31.819Z,35.53
2022-12-03T00:56:34.567Z,34.38
2022-12-03T00:59:37.352Z,36.08
2022-12-03T01:02:40.222Z,33.65
2022-12-03T01:05:43.131Z,33.07
2022-12-03T01:08:45.870Z,34.87
2022-12-03T01:11:48.684Z,36.92
2022-12-03T01:14:51.819Z,39.22
2022-12-03T01:17:54.923Z,40.80
2022-12-03T01:20:57.692Z,38.47
2022-12-03T01:24:00.811Z,33.97
2022-12-03T01:27:03.665Z,29.95
2022-12-03T01:30:07.526Z,34.03
2022-12-03T01:33:10.241Z,29.83
2022-12-03T01:36:13.091Z,31.03
2022-12-03T01:39:15.914Z,31.77
2022-12-03T01:42:31.126Z,31.95
2022-12-03T01:45:33.949Z,33.28
2022-12-03T01:48:38.529Z,36.75
2022-12-03T01:51:41.406Z,34.80
2022-12-03T01:55:06.241Z,39.33
2022-12-03T01:58:13.247Z,39.80
2022-12-03T02:01:18.712Z,37.20
2022-12-03T02:04:22.764Z,34.13
2022-12-03T02:07:28.856Z,33.63
2022-12-03T02:10:36.316Z,31.30
2022-12-03T02:13:39.286Z,33.97
2022-12-03T02:16:43.318Z,35.05
2022-12-03T02:19:46.908Z,29.55
2022-12-03T02:23:02.108Z,30.90
2022-12-03T02:26:05.191Z,35.73
2022-12-03T02:29:08.109Z,30.25
2022-12-03T02:32:11.108Z,29.50
2022-12-03T02:35:16.862Z,28.10
2022-12-03T02:38:27.060Z,28.30
2022-12-03T02:41:48.571Z,28.80
2022-12-03T02:44:51.993Z,25.05
2022-12-03T02:48:04.006Z,34.55
2022-12-03T02:51:09.499Z,29.95
2022-12-03T02:54:12.318Z,26.20
2022-12-03T02:57:16.575Z,25.67
2022-12-03T03:00:20.119Z,29.17
2022-12-03T03:03:25.846Z,22.88
2022-12-03T03:06:29.090Z,21.48
2022-12-03T03:09:34.095Z,22.67
2022-12-03T03:12:39.330Z,22.00
2022-12-03T03:15:43.112Z,21.25
2022-12-03T03:18:45.967Z,22.45
2022-12-03T03:21:48.747Z,23.35
2022-12-03T03:24:51.813Z,23.90
2022-12-03T03:27:54.806Z,21.87
2022-12-03T03:31:00.915Z,23.67
2022-12-03T03:34:03.924Z,23.10
2022-12-03T03:37:06.732Z,23.45
2022-12-03T03:40:10.008Z,22.20
2022-12-03T03:43:13.570Z,23.20
2022-12-03T03:46:17.654Z,23.02
2022-12-03T03:49:21.325Z,22.60
2022-12-03T03:52:24.640Z,20.75
2022-12-03T03:55:27.972Z,21.70
2022-12-03T03:58:31.089Z,21.50
2022-12-03T04:01:34.365Z,20.77
2022-12-03T04:04:37.378Z,19.10
2022-12-03T04:07:40.136Z,20.50
2022-12-03T04:11:01.491Z,19.30
2022-12-03T04:14:04.333Z,19.30
2022-12-03T04:17:07.094Z,19.67
2022-12-03T04:20:10.380Z,20.48
2022-12-03T04:23:13.102Z,20.13
2022-12-03T04:26:34.291Z,20.20
2022-12-03T04:29:37.374Z,21.07
2022-12-03T04:32:58.463Z,15.98
2022-12-03T04:36:01.189Z,19.35
2022-12-03T04:39:04.613Z,19.20
2022-12-03T04:42:08.043Z,20.10
2022-12-03T04:45:11.237Z,22.27
2022-12-03T04:48:14.075Z,21.08
2022-12-03T04:51:16.795Z,17.42
2022-12-03T04:54:19.713Z,21.25
2022-12-03T04:57:22.485Z,20.30
2022-12-03T05:00:25.422Z,21.17
2022-12-03T05:03:32.490Z,16.65
2022-12-03T05:06:35.257Z,15.85
2022-12-03T05:09:38.124Z,16.17
2022-12-03T05:12:40.975Z,15.30
2022-12-03T05:15:43.700Z,14.33
2022-12-03T05:18:46.635Z,14.45
2022-12-03T05:21:49.367Z,15.02
2022-12-03T05:24:52.577Z,15.05
2022-12-03T05:27:55.608Z,15.13
2022-12-03T05:30:58.469Z,17.43
2022-12-03T05:34:01.297Z,15.15
2022-12-03T05:37:04.093Z,15.38
2022-12-03T05:40:07.856Z,16.55
2022-12-03T05:43:10.826Z,13.13
2022-12-03T05:46:13.728Z,13.37
2022-12-03T05:49:16.609Z,14.25
2022-12-03T05:52:19.369Z,13.60
2022-12-03T05:55:22.525Z,13.77
2022-12-03T05:58:25.349Z,13.53
2022-12-03T06:01:28.168Z,12.67
2022-12-03T06:04:30.936Z,12.00
2022-12-03T06:07:34.100Z,12.38
2022-12-03T06:10:37.165Z,13.50
2022-12-03T06:13:39.960Z,12.87
2022-12-03T06:16:42.728Z,11.43
2022-12-03T06:19:45.585Z,11.02
2022-12-03T06:22:48.669Z,10.88
2022-12-03T06:25:51.422Z,11.63
2022-12-03T06:28:54.228Z,10.07
2022-12-03T06:31:57.123Z,9.47
2022-12-03T06:34:59.873Z,10.73
2022-12-03T06:38:02.734Z,10.95
2022-12-03T06:41:05.619Z,10.25
2022-12-03T06:44:08.372Z,11.20
2022-12-03T06:47:11.210Z,9.63
2022-12-03T06:50:14.160Z,9.88
2022-12-03T06:53:17.005Z,10.13
2022-12-03T06:56:22.241Z,9.32
2022-12-03T06:59:25.529Z,8.77
2022-12-03T07:02:28.480Z,10.00
2022-12-03T07:05:31.262Z,9.95
2022-12-03T07:08:34.372Z,10.18
2022-12-03T07:11:40.774Z,9.82
2022-12-03T07:14:43.651Z,9.50
2022-12-03T07:17:46.431Z,9.53
2022-12-03T07:20:51.344Z,10.05
2022-12-03T07:23:55.986Z,7.93
2022-12-03T07:26:58.794Z,8.27
2022-12-03T07:30:01.627Z,7.23
2022-12-03T07:33:04.509Z,7.70
2022-12-03T07:36:07.693Z,7.45
2022-12-03T07:39:10.876Z,7.57
2022-12-03T07:42:14.944Z,6.32
2022-12-03T07:45:17.909Z,6.33
2022-12-03T07:48:20.683Z,6.37
2022-12-03T07:51:27.376Z,6.40
2022-12-03T07:54:33.307Z,6.43
2022-12-03T07:57:36.078Z,6.25
2022-12-03T08:00:38.868Z,6.63
2022-12-03T08:03:43.123Z,6.43
2022-12-03T08:06:46.234Z,6.63
2022-12-03T08:09:50.102Z,6.82
2022-12-03T08:12:53.893Z,6.68
2022-12-03T08:16:01.182Z,6.83
2022-12-03T08:19:09.653Z,7.33
2022-12-03T08:22:17.033Z,7.35
2022-12-03T08:25:27.256Z,6.60
2022-12-03T08:28:32.037Z,7.40
2022-12-03T08:31:35.106Z,7.90
2022-12-03T08:34:45.039Z,8.50
2022-12-03T08:37:50.440Z,7.72
2022-12-03T08:40:55.468Z,8.00
2022-12-03T08:43:58.778Z,8.00
2022-12-03T08:47:17.138Z,9.67
2022-12-03T08:50:29.013Z,8.83
2022-12-03T08:53:33.576Z,9.07
2022-12-03T08:56:37.747Z,9.48
2022-12-03T08:59:45.354Z,9.05
2022-12-03T09:02:54.111Z,9.63
2022-12-03T09:05:56.897Z,10.07
2022-12-03T09:09:03.792Z,8.90
2022-12-03T09:12:09.977Z,9.02
2022-12-03T09:15:13.319Z,8.48
2022-12-03T09:18:16.189Z,10.20
2022-12-03T09:21:19.622Z,9.63
2022-12-03T09:24:22.897Z,9.32
2022-12-03T09:27:25.656Z,8.50
2022-12-03T09:30:28.455Z,8.73
2022-12-03T09:33:32.638Z,9.33
2022-12-03T09:36:35.502Z,10.27
2022-12-03T09:39:38.244Z,9.48
2022-12-03T09:42:41.558Z,9.25
2022-12-03T09:45:48.610Z,10.13
2022-12-03T09:48:51.443Z,10.15
2022-12-03T09:51:57.608Z,9.70
2022-12-03T09:55:16.027Z,9.65
2022-12-03T09:58:19.948Z,8.80
2022-12-03T10:01:24.280Z,8.32
2022-12-03T10:04:30.146Z,8.63
2022-12-03T10:07:33.135Z,9.37
2022-12-03T10:10:37.529Z,8.98
2022-12-03T10:13:41.274Z,8.50
2022-12-03T10:16:44.259Z,7.80
2022-12-03T10:19:47.527Z,7.85
2022-12-03T10:22:50.379Z,8.63
2022-12-03T10:25:54.702Z,9.10
2022-12-03T10:28:57.403Z,7.88
2022-12-03T10:32:12.002Z,9.32
2022-12-03T10:35:17.320Z,8.27
2022-12-03T10:38:24.273Z,8.07
2022-12-03T10:41:28.607Z,7.93
2022-12-03T10:44:31.457Z,9.18
2022-12-03T10:47:34.482Z,8.40
2022-12-03T10:50:38.220Z,8.23
2022-12-03T10:53:41.731Z,9.23
2022-12-03T10:56:45.517Z,10.27
2022-12-03T10:59:49.709Z,9.05
2022-12-03T11:02:56.768Z,8.70
2022-12-03T11:06:06.350Z,10.35
2022-12-03T11:09:19.818Z,9.60
2022-12-03T11:12:28.206Z,8.98
2022-12-03T11:15:45.464Z,9.30
2022-12-03T11:18:51.287Z,10.32
2022-12-03T11:22:06.419Z,11.13
2022-12-03T11:25:27.333Z,12.27
2022-12-03T11:28:35.896Z,9.90
2022-12-03T11:31:44.222Z,11.50
2022-12-03T11:34:47.191Z,12.35
2022-12-03T11:37:50.028Z,12.97
2022-12-03T11:41:13.475Z,12.20
2022-12-03T11:44:34.300Z,13.02
2022-12-03T11:47:37.044Z,13.60
2022-12-03T11:50:50.164Z,16.10
2022-12-03T11:53:56.652Z,14.38
2022-12-03T11:56:59.509Z,13.07
2022-12-03T12:00:23.456Z,14.43
2022-12-03T12:03:33.419Z,14.52
2022-12-03T12:06:42.669Z,13.70
2022-12-03T12:09:54.413Z,13.88
2022-12-03T12:12:57.497Z,15.17
2022-12-03T12:16:06.181Z,14.48
2022-12-03T12:19:27.751Z,15.45
2022-12-03T12:22:31.280Z,16.15
2022-12-03T12:25:33.970Z,17.48
2022-12-03T12:28:37.937Z,15.60
2022-12-03T12:31:40.746Z,15.95
2022-12-03T12:34:49.753Z,17.02
2022-12-03T12:38:00.019Z,16.77
2022-12-03T12:41:08.067Z,17.17
2022-12-03T12:44:13.233Z,17.57
2022-12-03T12:47:16.080Z,18.45
2022-12-03T12:50:20.027Z,19.27
2022-12-03T12:53:32.088Z,20.65
2022-12-03T12:56:34.989Z,21.38
2022-12-03T12:59:37.901Z,18.27
2022-12-03T13:02:45.218Z,17.92
2022-12-03T13:05:50.079Z,17.17
2022-12-03T13:08:53.478Z,19.38
2022-12-03T13:11:59.456Z,19.70
2022-12-03T13:15:02.300Z,19.93
2022-12-03T13:18:26.418Z,21.25
2022-12-03T13:21:44.215Z,21.63
2022-12-03T13:24:51.302Z,20.77
2022-12-03T13:27:54.062Z,20.35
2022-12-03T13:31:14.334Z,18.63
2022-12-03T13:34:22.359Z,22.58
2022-12-03T13:37:28.533Z,23.30
2022-12-03T13:40:35.217Z,21.63
2022-12-03T13:43:44.448Z,23.85
2022-12-03T13:46:47.743Z,22.90
2022-12-03T13:50:03.792Z,19.85
2022-12-03T13:53:29.706Z,19.10
2022-12-03T13:56:33.135Z,19.90
2022-12-03T13:59:36.019Z,16.77
2022-12-03T14:02:39.254Z,21.57
2022-12-03T14:05:42.055Z,20.45
2022-12-03T14:08:45.041Z,20.33
2022-12-03T14:12:06.355Z,19.55
2022-12-03T14:15:10.982Z,16.92
2022-12-03T14:18:14.075Z,16.97
2022-12-03T14:21:16.912Z,19.05
2022-12-03T14:24:19.819Z,19.35
2022-12-03T14:27:24.840Z,18.67
2022-12-03T14:30:28.925Z,21.27
2022-12-03T14:33:31.685Z,20.00
2022-12-03T14:36:34.465Z,18.42
2022-12-03T14:39:37.374Z,17.48
2022-12-03T14:42:40.367Z,17.55
2022-12-03T14:45:43.361Z,17.88
2022-12-03T14:48:46.196Z,17.47
2022-12-03T14:51:49.180Z,18.10
2022-12-03T14:54:52.179Z,17.23
2022-12-03T14:57:54.993Z,16.55
2022-12-03T15:00:57.880Z,17.17
2022-12-03T15:04:00.792Z,16.40
2022-12-03T15:07:03.854Z,16.90
2022-12-03T15:10:08.290Z,15.95
2022-12-03T15:13:11.121Z,16.05
2022-12-03T15:16:15.238Z,15.52
2022-12-03T15:19:18.140Z,16.70
2022-12-03T15:22:20.974Z,18.33
2022-12-03T15:25:25.658Z,16.67
2022-12-03T15:28:28.480Z,17.17
2022-12-03T15:31:31.360Z,16.35
2022-12-03T15:34:34.306Z,17.70
2022-12-03T15:37:37.095Z,16.83
2022-12-03T15:40:40.357Z,16.40
2022-12-03T15:43:43.882Z,16.10
2022-12-03T15:46:46.816Z,16.85
2022-12-03T15:49:49.702Z,17.77
2022-12-03T15:52:52.638Z,13.85
2022-12-03T15:55:55.342Z,16.08
2022-12-03T15:58:58.980Z,16.77
2022-12-03T16:02:01.901Z,16.57
2022-12-03T16:05:06.752Z,17.30
2022-12-03T16:08:09.515Z,19.23
2022-12-03T16:11:12.531Z,17.52
2022-12-03T16:14:15.431Z,19.45
2022-12-03T16:17:18.363Z,20.10
2022-12-03T16:20:21.289Z,20.70
2022-12-03T16:23:24.250Z,19.27
2022-12-03T16:26:27.385Z,17.58
2022-12-03T16:29:30.945Z,18.67
2022-12-03T16:32:33.779Z,20.40
2022-12-03T16:35:36.563Z,26.17
2022-12-03T16:38:39.705Z,23.75
2022-12-03T16:41:42.671Z,25.25
2022-12-03T16:45:05.973Z,20.65
2022-12-03T16:48:09.017Z,17.67
2022-12-03T16:51:12.134Z,18.17
2022-12-03T16:54:14.919Z,16.60
2022-12-03T16:57:17.751Z,15.27
2022-12-03T17:00:22.076Z,16.50
2022-12-03T17:03:28.982Z,15.63
2022-12-03T17:06:36.364Z,14.57
2022-12-03T17:09:39.395Z,12.75
2022-12-03T17:13:08.265Z,12.45
2022-12-03T17:16:06.899Z,12.13
2022-12-03T17:19:09.969Z,11.90
2022-12-03T17:22:12.944Z,12.07
2022-12-03T17:25:16.636Z,11.32
2022-12-03T17:28:19.737Z,12.57
2022-12-03T17:31:22.664Z,11.18
2022-12-03T17:34:25.509Z,11.07
2022-12-03T17:37:28.388Z,11.07
2022-12-03T17:40:31.177Z,11.45
2022-12-03T17:43:34.240Z,11.38
2022-12-03T17:46:37.254Z,12.15
2022-12-03T17:49:40.707Z,13.38
2022-12-03T17:52:43.532Z,13.57
2022-12-03T17:55:47.109Z,12.93
2022-12-03T17:58:50.370Z,13.77
2022-12-03T18:01:53.210Z,13.20
2022-12-03T18:04:56.006Z,11.90
2022-12-03T18:07:58.967Z,11.53
2022-12-03T18:11:01.818Z,11.60
2022-12-03T18:14:04.709Z,12.77
2022-12-03T18:17:07.485Z,11.77
2022-12-03T18:20:10.638Z,13.13
2022-12-03T18:23:13.916Z,12.03
2022-12-03T18:26:17.144Z,12.00
2022-12-03T18:29:20.310Z,13.02
2022-12-03T18:32:29.393Z,12.07
2022-12-03T18:35:32.826Z,12.73
2022-12-03T18:38:35.749Z,11.67
2022-12-03T18:41:38.783Z,13.65
2022-12-03T18:44:46.352Z,12.40
2022-12-03T18:47:52.333Z,10.93
2022-12-03T18:50:56.591Z,11.43
2022-12-03T18:53:59.538Z,11.97
2022-12-03T18:57:02.323Z,12.07
2022-12-03T19:00:13.066Z,13.05
2022-12-03T19:03:16.585Z,11.15
2022-12-03T19:06:21.320Z,11.27
2022-12-03T19:09:24.562Z,11.47
2022-12-03T19:12:27.811Z,12.02
2022-12-03T19:15:30.800Z,11.13
2022-12-03T19:18:34.219Z,11.60
2022-12-03T19:21:37.498Z,10.83
2022-12-03T19:24:40.750Z,11.47
2022-12-03T19:27:43.655Z,10.18
2022-12-03T19:30:46.587Z,9.68
2022-12-03T19:33:50.985Z,10.23
2022-12-03T19:36:53.752Z,10.80
2022-12-03T19:39:57.412Z,10.40
2022-12-03T19:43:00.844Z,9.02
2022-12-03T19:46:05.188Z,10.55
2022-12-03T19:49:09.495Z,9.80
2022-12-03T19:52:12.552Z,8.53
2022-12-03T19:55:19.629Z,9.50
2022-12-03T19:58:22.520Z,11.48
2022-12-03T20:01:28.772Z,11.70
2022-12-03T20:04:32.006Z,10.05
2022-12-03T20:07:35.444Z,10.53
2022-12-03T20:10:38.578Z,11.80
2022-12-03T20:13:42.706Z,12.27
2022-12-03T20:16:47.493Z,13.10
2022-12-03T20:19:51.728Z,14.27
2022-12-03T20:22:55.055Z,13.23
2022-12-03T20:25:58.494Z,15.30
2022-12-03T20:29:01.661Z,12.85
2022-12-03T20:32:07.230Z,12.82
2022-12-03T20:35:10.478Z,13.88
2022-12-03T20:38:15.043Z,13.47
2022-12-03T20:41:18.822Z,12.67
2022-12-03T20:44:21.815Z,13.73
2022-12-03T20:47:24.896Z,12.68
2022-12-03T20:50:27.970Z,15.10
2022-12-03T20:53:30.963Z,15.30
2022-12-03T20:56:36.490Z,15.67
2022-12-03T20:59:40.973Z,15.07
2022-12-03T21:02:45.287Z,14.27
2022-12-03T21:05:48.348Z,13.25
2022-12-03T21:08:53.919Z,14.13
2022-12-03T21:11:56.984Z,13.47
2022-12-03T21:14:59.764Z,13.23
2022-12-03T21:18:02.780Z,14.75
2022-12-03T21:21:06.848Z,15.10
2022-12-03T21:24:11.721Z,15.27
2022-12-03T21:27:19.996Z,15.77
2022-12-03T21:30:24.645Z,14.15
2022-12-03T21:33:27.992Z,12.68
2022-12-03T21:36:31.197Z,13.48
2022-12-03T21:39:34.121Z,14.37
2022-12-03T21:42:37.445Z,14.97
2022-12-03T21:45:41.239Z,13.98
2022-12-03T21:48:44.955Z,11.95
2022-12-03T21:51:47.958Z,11.77
2022-12-03T21:54:54.254Z,11.07
2022-12-03T21:57:57.043Z,10.40
2022-12-03T22:01:00.194Z,10.85
2022-12-03T22:04:03.446Z,11.30
2022-12-03T22:07:06.829Z,11.55
2022-12-03T22:10:11.336Z,11.30
2022-12-03T22:13:14.144Z,10.70
2022-12-03T22:16:22.205Z,10.77
2022-12-03T22:19:25.807Z,12.48
2022-12-03T22:22:28.727Z,12.80
2022-12-03T22:25:31.467Z,13.03
2022-12-03T22:28:35.144Z,11.37
2022-12-03T22:31:38.217Z,12.43
2022-12-03T22:34:42.218Z,13.23
2022-12-03T22:37:45.031Z,12.98
2022-12-03T22:40:47.856Z,11.50
2022-12-03T22:43:50.847Z,12.43
2022-12-03T22:46:53.777Z,11.70
2022-12-03T22:49:57.771Z,11.88
2022-12-03T22:53:00.712Z,11.05
2022-12-03T22:56:03.521Z,12.00
2022-12-03T22:59:06.385Z,12.17
2022-12-03T23:02:09.156Z,12.40
2022-12-03T23:05:11.903Z,12.32
2022-12-03T23:08:18.302Z,12.10
2022-12-03T23:11:21.810Z,12.73
2022-12-03T23:14:24.627Z,11.53
2022-12-03T23:17:27.403Z,12.50
2022-12-03T23:20:30.236Z,13.82
2022-12-03T23:23:32.991Z,12.13
2022-12-03T23:26:37.527Z,12.87
2022-12-03T23:29:40.485Z,11.43
2022-12-03T23:32:44.579Z,11.35
2022-12-03T23:35:47.478Z,11.57
2022-12-03T23:38:50.679Z,10.93
2022-12-03T23:41:54.084Z,11.90
2022-12-03T23:44:56.885Z,11.33
2022-12-03T23:48:00.121Z,11.18
2022-12-03T23:51:08.131Z,11.98
2022-12-03T23:54:12.282Z,10.93
2022-12-03T23:57:16.229Z,10.47
